Mountain Valley, Arkansas
Current Conditions -  °F | °C
As of 1:28 AM on Thursday 18 Dec 2014 (Local Time) from KHOT Reporting Station
Overcast Overcast  
Wind Chill: 31°   Ceiling: 5000
Heat Index: 37°   Visibility: 9mi
Dew Point: 35°   Wind: 8mph
Humidity: 93%   Direction: 110°ESE
Pressure: 30.21"   Gusts: NA
Location:  34.5331°N, 93.0035°W
Report Text: KHOT 180728Z AUTO 11007KT 9SM FEW006 OVC050 03/02 A3021 RMK AO2 RAE26 P0000 T00280017
Loading
Personal Weather Stations






























Interactive Weather Map New forecast layout! Learn more

10-Day Weather Forecast

Advertisements
Track Severe Weather on mobile